createdAt,value
2018-07-01T00:00:44.293Z,16.68
2018-07-01T00:04:47.727Z,16.63
2018-07-01T00:08:51.169Z,16.60
2018-07-01T00:12:54.566Z,16.56
2018-07-01T00:16:57.993Z,16.49
2018-07-01T00:21:01.405Z,16.45
2018-07-01T00:25:04.892Z,16.41
2018-07-01T00:29:08.350Z,16.37
2018-07-01T00:33:11.737Z,16.35
2018-07-01T00:37:15.195Z,16.29
2018-07-01T00:41:18.619Z,16.23
2018-07-01T00:45:23.169Z,16.21
2018-07-01T00:49:26.567Z,16.15
2018-07-01T00:53:29.993Z,16.10
2018-07-01T00:57:33.405Z,16.06
2018-07-01T01:01:36.832Z,16.01
2018-07-01T01:05:40.335Z,15.96
2018-07-01T01:09:43.757Z,15.92
2018-07-01T01:13:47.190Z,15.87
2018-07-01T01:17:50.606Z,15.83
2018-07-01T01:21:54.051Z,15.78
2018-07-01T01:25:57.490Z,15.68
2018-07-01T01:30:00.967Z,15.61
2018-07-01T01:34:04.497Z,15.54
2018-07-01T01:38:07.952Z,15.48
2018-07-01T01:42:18.534Z,15.48
2018-07-01T01:46:29.617Z,15.45
2018-07-01T01:50:53.694Z,15.41
2018-07-01T01:55:31.849Z,15.33
2018-07-01T01:59:41.414Z,15.32
2018-07-01T02:03:51.886Z,15.32
2018-07-01T02:07:58.771Z,15.32
2018-07-01T02:12:03.697Z,15.30
2018-07-01T02:16:11.230Z,15.27
2018-07-01T02:20:15.952Z,15.23
2018-07-01T02:24:23.612Z,15.18
2018-07-01T02:28:27.102Z,15.14
2018-07-01T02:32:30.479Z,15.11
2018-07-01T02:36:33.887Z,15.10
2018-07-01T02:40:37.285Z,15.00
2018-07-01T02:44:40.686Z,14.97
2018-07-01T02:48:44.129Z,14.92
2018-07-01T02:52:47.554Z,14.88
2018-07-01T02:56:50.990Z,14.86
2018-07-01T03:00:54.402Z,14.87
2018-07-01T03:04:57.806Z,14.88
2018-07-01T03:09:01.249Z,14.88
2018-07-01T03:13:04.673Z,14.90
2018-07-01T03:17:08.130Z,14.92
2018-07-01T03:21:11.532Z,14.93
2018-07-01T03:25:14.944Z,14.94
2018-07-01T03:29:18.348Z,14.95
2018-07-01T03:33:21.754Z,14.96
2018-07-01T03:37:25.174Z,14.95
2018-07-01T03:41:28.609Z,14.94
2018-07-01T03:45:31.994Z,14.95
2018-07-01T03:49:35.438Z,14.94
2018-07-01T03:53:38.837Z,14.93
2018-07-01T03:57:42.307Z,14.89
2018-07-01T04:01:45.845Z,14.86
2018-07-01T04:05:49.418Z,14.85
2018-07-01T04:09:52.845Z,14.81
2018-07-01T04:13:56.316Z,14.81
2018-07-01T04:17:59.735Z,14.78
2018-07-01T04:22:03.339Z,14.77
2018-07-01T04:26:06.735Z,14.80
2018-07-01T04:30:10.209Z,14.85
2018-07-01T04:34:14.426Z,14.90
2018-07-01T04:38:17.889Z,14.97
2018-07-01T04:42:21.307Z,15.02
2018-07-01T04:46:24.742Z,15.08
2018-07-01T04:50:28.162Z,15.16
2018-07-01T04:54:31.534Z,15.23
2018-07-01T04:58:34.954Z,15.34
2018-07-01T05:02:38.408Z,15.43
2018-07-01T05:06:41.966Z,15.56
2018-07-01T05:10:45.655Z,15.70
2018-07-01T05:14:49.101Z,15.85
2018-07-01T05:18:52.490Z,16.04
2018-07-01T05:22:55.936Z,16.12
2018-07-01T05:26:59.452Z,16.23
2018-07-01T05:31:02.921Z,16.35
2018-07-01T05:35:06.364Z,16.49
2018-07-01T05:39:11.182Z,16.53
2018-07-01T05:43:14.606Z,16.61
2018-07-01T05:47:18.037Z,16.72
2018-07-01T05:51:21.492Z,16.87
2018-07-01T05:55:24.918Z,17.02
2018-07-01T05:59:28.376Z,17.18
2018-07-01T06:03:31.891Z,17.30
2018-07-01T06:07:35.347Z,17.50
2018-07-01T06:11:38.981Z,17.65
2018-07-01T06:15:42.411Z,17.84
2018-07-01T06:19:45.838Z,18.08
2018-07-01T06:23:49.285Z,18.31
2018-07-01T06:27:52.687Z,18.45
2018-07-01T06:31:56.142Z,18.78
2018-07-01T06:35:59.593Z,19.02
2018-07-01T06:40:03.007Z,19.28
2018-07-01T06:44:07.676Z,19.55
2018-07-01T06:48:11.166Z,19.81
2018-07-01T06:52:14.584Z,20.09
2018-07-01T06:56:18.125Z,20.06
2018-07-01T07:00:21.541Z,20.07
2018-07-01T07:04:25.000Z,20.29
2018-07-01T07:08:28.476Z,20.43
2018-07-01T07:12:31.917Z,20.46
2018-07-01T07:16:35.409Z,20.66
2018-07-01T07:20:38.849Z,20.73
2018-07-01T07:24:42.249Z,20.84
2018-07-01T07:28:45.693Z,20.94
2018-07-01T07:32:49.135Z,20.94
2018-07-01T07:36:52.555Z,21.11
2018-07-01T07:40:56.066Z,21.28
2018-07-01T07:44:59.506Z,21.45
2018-07-01T07:49:02.981Z,21.62
2018-07-01T07:53:06.406Z,21.56
2018-07-01T07:57:09.906Z,21.65
2018-07-01T08:01:13.326Z,21.78
2018-07-01T08:05:16.813Z,21.83
2018-07-01T08:09:20.259Z,22.00
2018-07-01T08:13:23.718Z,22.02
2018-07-01T08:17:27.197Z,22.09
2018-07-01T08:21:32.574Z,22.16
2018-07-01T08:25:41.559Z,22.09
2018-07-01T08:29:45.196Z,22.27
2018-07-01T08:33:51.824Z,22.47
2018-07-01T08:37:56.911Z,22.40
2018-07-01T08:42:35.980Z,22.25
2018-07-01T08:46:45.351Z,22.25
2018-07-01T08:51:10.303Z,22.08
2018-07-01T08:55:38.416Z,21.92
2018-07-01T08:59:43.163Z,21.91
2018-07-01T09:03:48.107Z,21.98
2018-07-01T09:07:52.595Z,22.01
2018-07-01T09:11:58.795Z,21.86
2018-07-01T09:16:15.235Z,21.61
2018-07-01T09:20:29.460Z,21.62
2018-07-01T09:24:35.236Z,22.02
2018-07-01T09:28:41.099Z,22.41
2018-07-01T09:32:48.117Z,22.48
2018-07-01T09:36:55.076Z,22.30
2018-07-01T09:41:01.651Z,22.23
2018-07-01T09:45:10.642Z,22.15
2018-07-01T09:49:22.715Z,22.19
2018-07-01T09:57:49.275Z,22.55
2018-07-01T10:01:59.054Z,22.49
2018-07-01T10:06:10.030Z,22.44
2018-07-01T10:10:15.310Z,22.32
2018-07-01T10:14:23.270Z,22.21
2018-07-01T10:18:31.612Z,22.46
2018-07-01T10:22:40.196Z,22.50
2018-07-01T10:26:51.113Z,22.52
2018-07-01T10:31:10.953Z,22.46
2018-07-01T10:35:15.964Z,22.62
2018-07-01T10:44:07.523Z,22.69
2018-07-01T10:48:18.177Z,22.61
2018-07-01T10:52:23.896Z,22.50
2018-07-01T10:56:33.629Z,22.42
2018-07-01T11:00:39.629Z,22.43
2018-07-01T11:04:52.512Z,22.34
2018-07-01T11:09:02.891Z,22.24
2018-07-01T11:13:07.117Z,22.11
2018-07-01T11:17:13.506Z,22.14
2018-07-01T11:21:18.593Z,22.27
2018-07-01T11:25:22.222Z,22.44
2018-07-01T11:29:26.644Z,22.78
2018-07-01T11:33:30.142Z,23.05
2018-07-01T11:37:35.244Z,22.83
2018-07-01T11:41:39.680Z,22.75
2018-07-01T11:45:43.652Z,22.79
2018-07-01T11:49:49.466Z,22.78
2018-07-01T11:53:52.893Z,22.72
2018-07-01T11:57:56.331Z,22.53
2018-07-01T12:01:59.768Z,22.38
2018-07-01T12:06:03.202Z,22.41
2018-07-01T12:10:06.659Z,22.66
2018-07-01T12:14:10.118Z,23.03
2018-07-01T12:18:13.598Z,22.99
2018-07-01T12:22:17.044Z,22.85
2018-07-01T12:26:20.987Z,22.74
2018-07-01T12:30:24.606Z,22.74
2018-07-01T12:34:28.062Z,22.74
2018-07-01T12:38:31.665Z,22.63
2018-07-01T12:42:35.086Z,22.71
2018-07-01T12:46:40.029Z,22.81
2018-07-01T12:50:47.805Z,22.59
2018-07-01T12:54:51.661Z,22.58
2018-07-01T12:58:55.247Z,22.51
2018-07-01T13:02:58.908Z,22.38
2018-07-01T13:07:04.069Z,22.40
2018-07-01T13:11:07.634Z,22.57
2018-07-01T13:15:11.125Z,22.86
2018-07-01T13:19:14.853Z,23.13
2018-07-01T13:23:18.261Z,23.02
2018-07-01T13:27:22.321Z,22.79
2018-07-01T13:31:25.751Z,22.60
2018-07-01T13:35:29.483Z,22.50
2018-07-01T13:39:32.911Z,22.53
2018-07-01T13:43:36.344Z,22.58
2018-07-01T13:47:39.858Z,22.67
2018-07-01T13:51:43.327Z,22.81
2018-07-01T13:55:46.799Z,22.90
2018-07-01T13:59:50.584Z,22.88
2018-07-01T14:03:54.040Z,22.95
2018-07-01T14:07:57.434Z,22.89
2018-07-01T14:12:00.882Z,22.71
2018-07-01T14:16:04.292Z,22.68
2018-07-01T14:20:09.057Z,22.64
2018-07-01T14:24:12.468Z,22.64
2018-07-01T14:28:15.932Z,22.67
2018-07-01T14:32:19.346Z,22.62
2018-07-01T14:36:22.746Z,22.63
2018-07-01T14:40:26.193Z,22.61
2018-07-01T14:44:29.587Z,22.47
2018-07-01T14:48:32.995Z,22.38
2018-07-01T14:52:36.428Z,22.38
2018-07-01T14:56:39.844Z,22.40
2018-07-01T15:00:43.371Z,22.36
2018-07-01T15:04:46.851Z,22.40
2018-07-01T15:08:50.293Z,22.39
2018-07-01T15:12:53.772Z,22.37
2018-07-01T15:16:57.207Z,22.37
2018-07-01T15:21:00.681Z,22.33
2018-07-01T15:25:05.121Z,22.27
2018-07-01T15:29:08.588Z,22.16
2018-07-01T15:33:11.985Z,22.07
2018-07-01T15:37:15.449Z,22.00
2018-07-01T15:41:18.864Z,21.94
2018-07-01T15:45:22.261Z,21.95
2018-07-01T15:49:25.690Z,21.93
2018-07-01T15:53:29.146Z,21.92
2018-07-01T15:57:33.283Z,21.85
2018-07-01T16:01:36.730Z,21.81
2018-07-01T16:05:40.118Z,21.80
2018-07-01T16:09:43.605Z,21.79
2018-07-01T16:13:47.089Z,21.77
2018-07-01T16:17:50.751Z,21.75
2018-07-01T16:21:54.755Z,21.70
2018-07-01T16:26:03.390Z,21.65
2018-07-01T16:30:07.275Z,21.60
2018-07-01T16:34:10.774Z,21.56
2018-07-01T16:38:14.469Z,21.51
2018-07-01T16:42:17.925Z,21.49
2018-07-01T16:46:21.373Z,21.51
2018-07-01T16:50:24.813Z,21.48
2018-07-01T16:54:28.242Z,21.43
2018-07-01T16:58:31.675Z,21.38
2018-07-01T17:02:35.354Z,21.37
2018-07-01T17:06:38.766Z,21.37
2018-07-01T17:10:42.173Z,21.35
2018-07-01T17:14:45.611Z,21.30
2018-07-01T17:18:49.042Z,21.22
2018-07-01T17:22:52.473Z,21.19
2018-07-01T17:26:55.998Z,21.16
2018-07-01T17:31:04.713Z,21.10
2018-07-01T17:35:08.132Z,21.04
2018-07-01T17:39:11.650Z,20.99
2018-07-01T17:43:15.083Z,20.89
2018-07-01T17:47:18.546Z,20.84
2018-07-01T17:51:21.993Z,20.80
2018-07-01T17:55:25.394Z,20.77
2018-07-01T17:59:28.931Z,20.72
2018-07-01T18:03:32.342Z,20.64
2018-07-01T18:07:36.037Z,20.63
2018-07-01T18:11:39.472Z,20.60
2018-07-01T18:15:42.987Z,20.58
2018-07-01T18:19:46.446Z,20.55
2018-07-01T18:24:19.498Z,20.50
2018-07-01T18:28:03.601Z,20.41
2018-07-01T18:31:56.928Z,20.35
2018-07-01T18:36:00.352Z,20.33
2018-07-01T18:40:03.834Z,20.28
2018-07-01T18:44:07.499Z,20.23
2018-07-01T18:48:10.953Z,20.19
2018-07-01T18:52:14.430Z,20.13
2018-07-01T18:56:17.891Z,20.10
2018-07-01T19:00:21.312Z,20.07
2018-07-01T19:04:24.740Z,20.03
2018-07-01T19:08:28.531Z,20.01
2018-07-01T19:12:32.051Z,19.98
2018-07-01T19:16:35.455Z,19.91
2018-07-01T19:20:38.967Z,19.85
2018-07-01T19:24:42.384Z,19.80
2018-07-01T19:28:45.801Z,19.75
2018-07-01T19:32:49.227Z,19.71
2018-07-01T19:36:52.946Z,19.65
2018-07-01T19:40:56.360Z,19.59
2018-07-01T19:44:59.769Z,19.53
2018-07-01T19:49:03.167Z,19.47
2018-07-01T19:53:06.597Z,19.38
2018-07-01T19:57:10.063Z,19.32
2018-07-01T20:01:13.499Z,19.26
2018-07-01T20:05:16.926Z,19.19
2018-07-01T20:09:20.400Z,19.11
2018-07-01T20:13:24.761Z,19.03
2018-07-01T20:17:28.162Z,18.95
2018-07-01T20:21:31.638Z,18.89
2018-07-01T20:25:35.074Z,18.85
2018-07-01T20:29:38.517Z,18.79
2018-07-01T20:33:41.918Z,18.73
2018-07-01T20:37:45.306Z,18.68
2018-07-01T20:41:48.734Z,18.61
2018-07-01T20:45:52.197Z,18.52
2018-07-01T20:49:55.786Z,18.37
2018-07-01T20:53:59.242Z,18.26
2018-07-01T20:58:02.669Z,18.17
2018-07-01T21:02:06.141Z,18.11
2018-07-01T21:06:09.537Z,18.09
2018-07-01T21:10:12.965Z,18.03
2018-07-01T21:14:16.363Z,18.01
2018-07-01T21:18:19.789Z,17.98
2018-07-01T21:22:23.322Z,17.93
2018-07-01T21:26:26.774Z,17.89
2018-07-01T21:30:30.245Z,17.80
2018-07-01T21:34:33.663Z,17.73
2018-07-01T21:38:37.109Z,17.60
2018-07-01T21:42:40.553Z,17.55
2018-07-01T21:46:43.988Z,17.46
2018-07-01T21:50:47.419Z,17.41
2018-07-01T21:54:50.850Z,17.34
2018-07-01T21:58:54.281Z,17.27
2018-07-01T22:02:57.705Z,17.24
2018-07-01T22:07:01.581Z,17.16
2018-07-01T22:11:51.961Z,17.10
2018-07-01T22:16:06.190Z,17.03
2018-07-01T22:20:09.629Z,16.99
2018-07-01T22:24:13.773Z,16.96
2018-07-01T22:28:17.226Z,16.92
2018-07-01T22:32:20.644Z,16.91
2018-07-01T22:36:24.062Z,16.87
2018-07-01T22:40:27.473Z,16.83
2018-07-01T22:44:31.472Z,16.80
2018-07-01T22:48:34.890Z,16.77
2018-07-01T22:52:38.410Z,16.72
2018-07-01T22:56:41.940Z,16.71
2018-07-01T23:00:45.369Z,16.68
2018-07-01T23:04:48.802Z,16.66
2018-07-01T23:08:52.217Z,16.62
2018-07-01T23:12:56.372Z,16.55
2018-07-01T23:16:59.814Z,16.50
2018-07-01T23:21:03.243Z,16.48
2018-07-01T23:25:06.771Z,16.48
2018-07-01T23:29:10.173Z,16.45
2018-07-01T23:33:13.589Z,16.42
2018-07-01T23:37:17.032Z,16.39
2018-07-01T23:41:20.487Z,16.31
2018-07-01T23:45:23.909Z,16.21
2018-07-01T23:49:27.338Z,16.11
2018-07-01T23:53:30.767Z,16.00
2018-07-01T23:57:34.158Z,15.89
